createdAt,value
2022-10-05T00:00:03.643Z,82
2022-10-05T00:03:28.862Z,82
2022-10-05T00:06:54.090Z,82
2022-10-05T00:10:19.296Z,82
2022-10-05T00:13:44.538Z,82
2022-10-05T00:17:09.725Z,82
2022-10-05T00:20:34.942Z,82
2022-10-05T00:24:00.175Z,82
2022-10-05T00:27:25.320Z,82
2022-10-05T00:30:50.540Z,81
2022-10-05T00:34:15.603Z,82
2022-10-05T00:37:40.748Z,82
2022-10-05T00:41:05.883Z,82
2022-10-05T00:44:31.013Z,82
2022-10-05T00:47:56.177Z,82
2022-10-05T00:51:21.289Z,83
2022-10-05T00:54:46.880Z,84
2022-10-05T00:58:12.018Z,84
2022-10-05T01:01:37.218Z,84
2022-10-05T01:05:02.389Z,83
2022-10-05T01:08:27.444Z,83
2022-10-05T01:11:52.592Z,82
2022-10-05T01:15:17.727Z,83
2022-10-05T01:18:42.874Z,83
2022-10-05T01:22:08.050Z,84
2022-10-05T01:25:33.169Z,84
2022-10-05T01:28:58.331Z,84
2022-10-05T01:32:23.500Z,84
2022-10-05T01:35:48.617Z,84
2022-10-05T01:39:13.790Z,84
2022-10-05T01:42:38.929Z,83
2022-10-05T01:46:04.153Z,83
2022-10-05T01:49:29.198Z,84
2022-10-05T01:52:54.343Z,84
2022-10-05T01:56:19.516Z,84
2022-10-05T01:59:44.626Z,84
2022-10-05T02:03:09.759Z,84
2022-10-05T02:06:34.904Z,84
2022-10-05T02:10:00.043Z,84
2022-10-05T02:13:25.197Z,84
2022-10-05T02:16:50.347Z,84
2022-10-05T02:20:15.479Z,84
2022-10-05T02:23:40.638Z,83
2022-10-05T02:27:05.761Z,83
2022-10-05T02:30:30.919Z,83
2022-10-05T02:33:56.029Z,83
2022-10-05T02:37:21.162Z,83
2022-10-05T02:40:46.300Z,83
2022-10-05T02:44:11.497Z,83
2022-10-05T02:47:36.723Z,83
2022-10-05T02:51:01.911Z,83
2022-10-05T02:54:27.132Z,84
2022-10-05T02:57:52.338Z,84
2022-10-05T03:01:17.611Z,84
2022-10-05T03:04:42.760Z,84
2022-10-05T03:08:07.933Z,84
2022-10-05T03:11:33.139Z,84
2022-10-05T03:14:58.371Z,84
2022-10-05T03:18:26.335Z,84
2022-10-05T03:21:48.821Z,84
2022-10-05T03:25:14.032Z,84
2022-10-05T03:28:39.288Z,85
2022-10-05T03:32:04.457Z,85
2022-10-05T03:35:29.651Z,85
2022-10-05T03:38:54.869Z,85
2022-10-05T03:42:20.045Z,85
2022-10-05T03:45:45.304Z,85
2022-10-05T03:49:10.452Z,85
2022-10-05T03:52:36.012Z,85
2022-10-05T03:56:03.184Z,85
2022-10-05T03:59:30.201Z,85
2022-10-05T04:02:51.557Z,85
2022-10-05T04:06:16.618Z,85
2022-10-05T04:09:41.755Z,85
2022-10-05T04:13:06.917Z,85
2022-10-05T04:16:32.038Z,85
2022-10-05T04:19:57.438Z,85
2022-10-05T04:23:22.572Z,85
2022-10-05T04:26:47.996Z,84
2022-10-05T04:30:12.950Z,84
2022-10-05T04:33:38.125Z,85
2022-10-05T04:37:03.319Z,85
2022-10-05T04:40:28.502Z,85
2022-10-05T04:43:53.685Z,85
2022-10-05T04:47:18.886Z,85
2022-10-05T04:50:44.042Z,85
2022-10-05T04:54:09.216Z,86
2022-10-05T04:57:34.385Z,86
2022-10-05T05:00:59.611Z,86
2022-10-05T05:04:24.796Z,86
2022-10-05T05:07:49.999Z,86
2022-10-05T05:11:17.471Z,86
2022-10-05T05:14:40.409Z,86
2022-10-05T05:18:05.595Z,86
2022-10-05T05:21:30.863Z,86
2022-10-05T05:24:55.957Z,85
2022-10-05T05:28:21.216Z,85
2022-10-05T05:31:46.415Z,86
2022-10-05T05:35:11.561Z,86
2022-10-05T05:38:36.772Z,86
2022-10-05T05:42:01.924Z,86
2022-10-05T05:45:27.113Z,87
2022-10-05T05:48:52.294Z,87
2022-10-05T05:52:17.474Z,87
2022-10-05T05:55:42.697Z,87
2022-10-05T05:59:07.855Z,87
2022-10-05T06:02:33.171Z,87
2022-10-05T06:05:58.302Z,87
2022-10-05T06:09:23.520Z,87
2022-10-05T06:12:48.746Z,88
2022-10-05T06:16:13.974Z,89
2022-10-05T06:19:39.136Z,89
2022-10-05T06:23:04.343Z,88
2022-10-05T06:26:29.532Z,89
2022-10-05T06:29:54.753Z,89
2022-10-05T06:33:19.942Z,88
2022-10-05T06:36:45.447Z,88
2022-10-05T06:40:10.349Z,88
2022-10-05T06:43:35.552Z,88
2022-10-05T06:47:00.791Z,88
2022-10-05T06:50:25.992Z,88
2022-10-05T06:53:51.184Z,88
2022-10-05T06:57:16.399Z,88
2022-10-05T07:00:41.608Z,88
2022-10-05T07:04:06.840Z,89
2022-10-05T07:07:32.037Z,89
2022-10-05T07:10:57.243Z,88
2022-10-05T07:14:22.458Z,88
2022-10-05T07:17:47.696Z,88
2022-10-05T07:21:12.930Z,88
2022-10-05T07:24:38.136Z,88
2022-10-05T07:28:03.419Z,87
2022-10-05T07:31:28.614Z,87
2022-10-05T07:34:53.910Z,87
2022-10-05T07:38:19.159Z,87
2022-10-05T07:41:44.371Z,87
2022-10-05T07:45:09.604Z,87
2022-10-05T07:48:34.874Z,86
2022-10-05T07:52:00.112Z,87
2022-10-05T07:55:25.355Z,87
2022-10-05T07:58:50.580Z,87
2022-10-05T08:02:15.967Z,87
2022-10-05T08:05:41.083Z,86
2022-10-05T08:09:06.354Z,86
2022-10-05T08:12:31.606Z,85
2022-10-05T08:15:56.893Z,85
2022-10-05T08:19:21.996Z,85
2022-10-05T08:22:47.163Z,86
2022-10-05T08:26:12.338Z,86
2022-10-05T08:29:37.550Z,86
2022-10-05T08:33:02.697Z,85
2022-10-05T08:36:27.890Z,85
2022-10-05T08:39:53.073Z,84
2022-10-05T08:43:18.269Z,85
2022-10-05T08:46:43.537Z,84
2022-10-05T08:50:08.652Z,85
2022-10-05T08:53:33.862Z,85
2022-10-05T08:56:59.063Z,84
2022-10-05T09:00:24.272Z,84
2022-10-05T09:03:49.547Z,84
2022-10-05T09:07:14.731Z,84
2022-10-05T09:10:39.956Z,83
2022-10-05T09:14:05.184Z,83
2022-10-05T09:17:30.396Z,83
2022-10-05T09:20:55.637Z,82
2022-10-05T09:24:20.838Z,81
2022-10-05T09:27:46.857Z,80
2022-10-05T09:31:12.123Z,79
2022-10-05T09:34:37.412Z,79
2022-10-05T09:38:02.690Z,79
2022-10-05T09:41:27.917Z,80
2022-10-05T09:44:53.175Z,79
2022-10-05T09:48:18.444Z,80
2022-10-05T09:51:43.925Z,80
2022-10-05T09:55:09.036Z,80
2022-10-05T09:58:34.237Z,80
2022-10-05T10:01:59.516Z,80
2022-10-05T10:05:24.722Z,80
2022-10-05T10:08:49.988Z,81
2022-10-05T10:12:15.268Z,79
2022-10-05T10:15:40.562Z,78
2022-10-05T10:19:05.761Z,79
2022-10-05T10:22:31.055Z,80
2022-10-05T10:25:56.362Z,80
2022-10-05T10:29:21.718Z,81
2022-10-05T10:32:47.049Z,81
2022-10-05T10:36:12.449Z,80
2022-10-05T10:39:37.756Z,80
2022-10-05T10:43:03.240Z,82
2022-10-05T10:46:28.865Z,80
2022-10-05T10:49:54.290Z,80
2022-10-05T10:53:19.899Z,80
2022-10-05T10:56:45.746Z,79
2022-10-05T11:00:11.293Z,79
2022-10-05T11:03:37.105Z,79
2022-10-05T11:07:02.699Z,80
2022-10-05T11:10:28.515Z,79
2022-10-05T11:13:54.316Z,79
2022-10-05T11:17:20.066Z,80
2022-10-05T11:20:45.843Z,79
2022-10-05T11:24:11.621Z,80
2022-10-05T11:27:37.304Z,80
2022-10-05T11:31:03.085Z,79
2022-10-05T11:34:28.612Z,80
2022-10-05T11:37:54.339Z,79
2022-10-05T11:41:20.069Z,81
2022-10-05T11:44:45.700Z,80
2022-10-05T11:48:11.313Z,80
2022-10-05T11:51:36.909Z,79
2022-10-05T11:55:11.250Z,80
2022-10-05T11:58:27.897Z,79
2022-10-05T12:01:53.532Z,79
2022-10-05T12:05:19.233Z,78
2022-10-05T12:08:44.892Z,74
2022-10-05T12:12:10.604Z,76
2022-10-05T12:15:36.169Z,75
2022-10-05T12:19:01.888Z,75
2022-10-05T12:22:27.607Z,75
2022-10-05T12:25:53.298Z,74
2022-10-05T12:29:19.113Z,73
2022-10-05T12:32:44.737Z,74
2022-10-05T12:36:10.416Z,74
2022-10-05T12:39:36.188Z,74
2022-10-05T12:43:01.326Z,75
2022-10-05T12:46:26.534Z,75
2022-10-05T12:49:51.651Z,74
2022-10-05T12:53:16.830Z,74
2022-10-05T12:56:41.994Z,74
2022-10-05T13:00:07.269Z,75
2022-10-05T13:03:32.457Z,75
2022-10-05T13:06:57.706Z,76
2022-10-05T13:10:22.857Z,77
2022-10-05T13:13:48.031Z,77
2022-10-05T13:17:13.200Z,78
2022-10-05T13:20:38.414Z,78
2022-10-05T13:24:03.535Z,78
2022-10-05T13:27:28.740Z,78
2022-10-05T13:30:53.920Z,78
2022-10-05T13:34:19.088Z,78
2022-10-05T13:37:44.272Z,79
2022-10-05T13:41:09.426Z,79
2022-10-05T13:44:34.661Z,79
2022-10-05T13:47:59.816Z,79
2022-10-05T13:51:24.982Z,79
2022-10-05T13:54:50.173Z,79
2022-10-05T13:58:15.311Z,79
2022-10-05T14:01:40.500Z,80
2022-10-05T14:05:06.348Z,79
2022-10-05T14:08:31.576Z,80
2022-10-05T14:11:56.904Z,80
2022-10-05T14:15:31.174Z,80
2022-10-05T14:18:56.336Z,79
2022-10-05T14:22:21.505Z,79
2022-10-05T14:25:46.674Z,80
2022-10-05T14:29:11.896Z,80
2022-10-05T15:04:31.509Z,81
2022-10-05T15:07:56.641Z,82
2022-10-05T15:11:21.814Z,81
2022-10-05T15:14:47.010Z,81
2022-10-05T15:18:12.170Z,81
2022-10-05T15:21:37.418Z,81
2022-10-05T15:25:02.571Z,81
2022-10-05T15:28:27.774Z,82
2022-10-05T15:31:52.900Z,82
2022-10-05T15:35:18.162Z,82
2022-10-05T15:38:43.346Z,83
2022-10-05T15:42:08.501Z,83
2022-10-05T15:45:33.756Z,83
2022-10-05T15:48:58.958Z,83
2022-10-05T15:52:24.174Z,83
2022-10-05T15:55:49.410Z,84
2022-10-05T15:59:17.688Z,84
2022-10-05T16:02:39.860Z,84
2022-10-05T16:06:05.098Z,84
2022-10-05T16:09:30.312Z,84
2022-10-05T16:12:55.532Z,84
2022-10-05T16:16:21.661Z,84
2022-10-05T16:19:46.841Z,85
2022-10-05T16:23:12.066Z,85
2022-10-05T16:26:37.240Z,85
2022-10-05T16:30:02.466Z,85
2022-10-05T16:33:27.649Z,85
2022-10-05T16:36:52.938Z,85
2022-10-05T16:40:18.120Z,85
2022-10-05T16:43:43.329Z,86
2022-10-05T16:47:08.584Z,86
2022-10-05T16:50:33.793Z,86
2022-10-05T16:54:01.739Z,86
2022-10-05T16:57:26.900Z,86
2022-10-05T17:00:52.090Z,86
2022-10-05T17:04:17.334Z,87
2022-10-05T17:07:42.545Z,87
2022-10-05T17:11:07.795Z,87
2022-10-05T17:14:32.996Z,87
2022-10-05T17:17:58.289Z,87
2022-10-05T17:21:25.247Z,87
2022-10-05T17:24:51.893Z,87
2022-10-05T17:28:17.163Z,87
2022-10-05T17:31:42.374Z,87
2022-10-05T17:35:07.626Z,87
2022-10-05T17:38:32.973Z,87
2022-10-05T17:41:59.161Z,87
2022-10-05T17:45:24.308Z,87
2022-10-05T17:48:49.512Z,87
2022-10-05T17:52:14.772Z,87
2022-10-05T17:55:40.004Z,87
2022-10-05T17:59:05.402Z,87
2022-10-05T18:02:35.416Z,87
2022-10-05T18:05:55.884Z,87
2022-10-05T18:09:21.207Z,87
2022-10-05T18:12:46.433Z,87
2022-10-05T18:16:11.684Z,87
2022-10-05T18:19:36.866Z,87
2022-10-05T18:23:02.121Z,87
2022-10-05T18:26:27.325Z,87
2022-10-05T18:29:52.536Z,87
2022-10-05T18:33:17.720Z,87
2022-10-05T18:36:42.987Z,87
2022-10-05T18:40:08.205Z,87
2022-10-05T18:43:33.410Z,87
2022-10-05T18:46:58.687Z,87
2022-10-05T18:50:23.936Z,87
2022-10-05T18:53:49.233Z,87
2022-10-05T18:57:14.495Z,87
2022-10-05T19:00:39.770Z,87
2022-10-05T19:04:05.033Z,87
2022-10-05T19:07:30.295Z,87
2022-10-05T19:10:55.534Z,87
2022-10-05T19:14:20.777Z,87
2022-10-05T19:17:46.022Z,87
2022-10-05T19:21:11.293Z,87
2022-10-05T19:24:36.513Z,87
2022-10-05T19:28:01.855Z,87
2022-10-05T19:31:27.111Z,87
2022-10-05T19:34:52.279Z,87
2022-10-05T19:41:42.735Z,87
2022-10-05T19:45:07.999Z,87
2022-10-05T19:48:33.241Z,87
2022-10-05T19:51:58.508Z,87
2022-10-05T19:55:23.777Z,87
2022-10-05T19:58:48.989Z,87
2022-10-05T20:02:14.180Z,87
2022-10-05T20:05:39.345Z,87
2022-10-05T20:09:04.526Z,87
2022-10-05T20:12:29.719Z,88
2022-10-05T20:15:54.947Z,88
2022-10-05T20:19:20.081Z,88
2022-10-05T20:22:45.249Z,88
2022-10-05T20:26:10.434Z,88
2022-10-05T20:29:35.697Z,88
2022-10-05T20:33:00.771Z,88
2022-10-05T20:36:25.964Z,88
2022-10-05T20:39:51.114Z,88
2022-10-05T20:43:16.286Z,88
2022-10-05T20:46:41.571Z,88
2022-10-05T20:50:06.609Z,88
2022-10-05T20:53:31.766Z,88
2022-10-05T20:56:56.959Z,88
2022-10-05T21:00:22.122Z,88
2022-10-05T21:03:47.315Z,88
2022-10-05T21:07:12.444Z,88
2022-10-05T21:10:37.606Z,88
2022-10-05T21:14:05.653Z,87
2022-10-05T21:17:27.959Z,87
2022-10-05T21:20:53.160Z,88
2022-10-05T21:24:18.306Z,88
2022-10-05T21:27:43.473Z,88
2022-10-05T21:31:08.698Z,88
2022-10-05T21:34:33.818Z,88
2022-10-05T21:37:59.072Z,87
2022-10-05T21:41:24.149Z,87
2022-10-05T21:44:49.309Z,87
2022-10-05T21:48:14.461Z,88
2022-10-05T21:51:39.627Z,88
2022-10-05T21:55:04.848Z,87
2022-10-05T21:58:30.311Z,88
2022-10-05T22:01:55.148Z,88
2022-10-05T22:05:20.401Z,88
2022-10-05T22:08:45.493Z,88
2022-10-05T22:12:10.697Z,88
2022-10-05T22:15:35.841Z,88
2022-10-05T22:19:00.999Z,88
2022-10-05T22:22:26.205Z,88
2022-10-05T22:25:51.393Z,88
2022-10-05T22:29:16.627Z,88
2022-10-05T22:32:41.734Z,88
2022-10-05T22:36:06.927Z,88
2022-10-05T22:39:32.105Z,88
2022-10-05T22:42:57.264Z,88
2022-10-05T22:46:22.494Z,88
2022-10-05T22:49:47.613Z,88
2022-10-05T22:53:12.767Z,88
2022-10-05T22:56:37.956Z,88
2022-10-05T23:00:03.140Z,88
2022-10-05T23:03:28.343Z,88
2022-10-05T23:06:53.490Z,88
2022-10-05T23:10:18.678Z,88
2022-10-05T23:13:43.850Z,89
2022-10-05T23:17:09.026Z,88
2022-10-05T23:20:34.242Z,88
2022-10-05T23:23:59.418Z,89
2022-10-05T23:27:24.585Z,89
2022-10-05T23:30:49.844Z,89
2022-10-05T23:34:14.955Z,89
2022-10-05T23:37:40.151Z,88
2022-10-05T23:41:05.315Z,88
2022-10-05T23:44:30.490Z,88
2022-10-05T23:47:55.649Z,88
2022-10-05T23:51:20.856Z,87
2022-10-05T23:54:46.104Z,88
2022-10-05T23:58:11.249Z,87
